Time;durP1;ratioP1;P1;durP2;ratioP2;P2;SDS_P1;SDS_P2;PMS_P1;PMS_P2;Temp;Humidity;BMP_temperature;BMP_pressure;BME280_temperature;BME280_humidity;BME280_pressure;Samples;Min_cycle;Max_cycle;Signal;HPM_P1;HPM_P2
2022/01/22 00:02:01;;;;;;;6.70;6.10;;;;;;;;;;5014545;28;20230;-64
2022/01/22 00:04:29;;;;;;;7.15;5.82;;;;;;;;;;5014754;28;20244;-64
2022/01/22 00:06:58;;;;;;;8.85;7.13;;;;;;;;;;5014299;28;20235;-64
2022/01/22 00:09:28;;;;;;;6.40;5.80;;;;;;;;;;5015015;28;20198;-64
2022/01/22 00:11:55;;;;;;;7.32;6.47;;;;;;;;;;5014657;28;20210;-64
2022/01/22 00:14:26;;;;;;;9.93;6.43;;;;;;;;;;5014535;28;20379;-64
2022/01/22 00:16:53;;;;;;;7.40;5.60;;;;;;;;;;5014664;28;20636;-64
2022/01/22 00:19:22;;;;;;;10.75;7.65;;;;;;;;;;5014821;28;20201;-64
2022/01/22 00:21:49;;;;;;;7.25;6.00;;;;;;;;;;5014534;28;20230;-64
2022/01/22 00:24:17;;;;;;;8.77;6.20;;;;;;;;;;5014172;28;20211;-64
2022/01/22 00:26:44;;;;;;;5.70;5.18;;;;;;;;;;5014381;28;20256;-65
2022/01/22 00:29:12;;;;;;;10.98;5.60;;;;;;;;;;5014389;28;20240;-64
2022/01/22 00:31:41;;;;;;;8.35;6.55;;;;;;;;;;5014350;28;20289;-64
2022/01/22 00:34:08;;;;;;;5.80;5.20;;;;;;;;;;5014519;28;20309;-65
2022/01/22 00:36:37;;;;;;;7.55;6.32;;;;;;;;;;5013872;28;20311;-64
2022/01/22 00:39:04;;;;;;;4.95;4.18;;;;;;;;;;5013920;28;20202;-64
2022/01/22 00:41:31;;;;;;;12.02;7.65;;;;;;;;;;5014258;28;20205;-64
2022/01/22 00:43:59;;;;;;;7.63;5.50;;;;;;;;;;5014427;28;20331;-64
2022/01/22 00:46:26;;;;;;;7.78;5.60;;;;;;;;;;5014114;28;20626;-64
2022/01/22 00:48:53;;;;;;;6.45;5.10;;;;;;;;;;5013823;28;20285;-64
2022/01/22 00:51:21;;;;;;;13.18;5.80;;;;;;;;;;5014221;28;20707;-64
2022/01/22 00:53:50;;;;;;;7.55;4.70;;;;;;;;;;5013657;28;20690;-64
2022/01/22 00:56:17;;;;;;;5.40;4.90;;;;;;;;;;5014077;28;20558;-64
2022/01/22 00:58:44;;;;;;;6.25;5.63;;;;;;;;;;5013621;28;20289;-64
2022/01/22 01:01:11;;;;;;;6.20;5.60;;;;;;;;;;5014020;28;20296;-64
2022/01/22 01:03:38;;;;;;;6.07;3.83;;;;;;;;;;5013602;28;20676;-64
2022/01/22 01:06:06;;;;;;;8.48;5.70;;;;;;;;;;5013828;28;20293;-64
2022/01/22 01:08:35;;;;;;;9.95;5.85;;;;;;;;;;5013515;28;20226;-64
2022/01/22 01:11:04;;;;;;;6.95;5.53;;;;;;;;;;5013523;28;20730;-64
2022/01/22 01:13:37;;;;;;;8.10;5.90;;;;;;;;;;5013756;28;20216;-63
2022/01/22 01:16:16;;;;;;;7.13;5.43;;;;;;;;;;5013762;28;20292;-64
2022/01/22 01:32:41;;;;;;;5.03;4.55;;;;;;;;;;5013425;28;20548;-63
2022/01/22 01:35:09;;;;;;;7.25;5.97;;;;;;;;;;5013990;28;20618;-63
2022/01/22 01:37:36;;;;;;;7.97;5.88;;;;;;;;;;5013734;28;20572;-64
2022/01/22 01:40:06;;;;;;;12.50;6.00;;;;;;;;;;5013558;28;20665;-63
2022/01/22 01:42:39;;;;;;;6.90;5.13;;;;;;;;;;5013225;28;20234;-65
2022/01/22 01:45:07;;;;;;;14.55;6.55;;;;;;;;;;5013812;28;20191;-64
2022/01/22 01:47:35;;;;;;;7.78;5.65;;;;;;;;;;5013786;28;20232;-64
2022/01/22 01:50:03;;;;;;;9.20;5.75;;;;;;;;;;5013848;28;20609;-63
2022/01/22 01:52:37;;;;;;;11.68;6.00;;;;;;;;;;5013895;28;20287;-64
2022/01/22 01:55:11;;;;;;;11.45;6.00;;;;;;;;;;5013116;28;20220;-65
2022/01/22 01:57:39;;;;;;;5.85;5.25;;;;;;;;;;5013207;28;20277;-64
2022/01/22 02:00:08;;;;;;;6.45;4.85;;;;;;;;;;5014999;28;20206;-64
2022/01/22 02:02:37;;;;;;;10.77;5.25;;;;;;;;;;5017036;28;20229;-64
2022/01/22 02:05:04;;;;;;;5.50;4.20;;;;;;;;;;5017655;28;20208;-65
2022/01/22 02:07:33;;;;;;;10.05;6.63;;;;;;;;;;5016539;28;20269;-64
2022/01/22 02:10:01;;;;;;;9.73;7.50;;;;;;;;;;5016656;28;20202;-65
2022/01/22 02:12:49;;;;;;;8.98;6.07;;;;;;;;;;5016600;28;20289;-64
2022/01/22 02:23:42;;;;;;;8.73;4.82;;;;;;;;;;5016530;28;20240;-64
2022/01/22 02:26:10;;;;;;;9.65;6.50;;;;;;;;;;5017199;28;20277;-64
2022/01/22 02:28:37;;;;;;;6.95;6.00;;;;;;;;;;5016310;28;20678;-64
2022/01/22 02:31:11;;;;;;;17.73;5.95;;;;;;;;;;5016587;28;20249;-64
2022/01/22 02:33:47;;;;;;;8.32;5.70;;;;;;;;;;5016604;28;20207;-64
2022/01/22 02:36:20;;;;;;;8.07;6.15;;;;;;;;;;5016251;28;20198;-64
2022/01/22 02:38:54;;;;;;;9.57;6.43;;;;;;;;;;5016052;28;20229;-64
2022/01/22 02:41:24;;;;;;;6.78;5.65;;;;;;;;;;5016812;28;20187;-64
2022/01/22 02:43:52;;;;;;;6.45;5.80;;;;;;;;;;5016463;28;20202;-64
2022/01/22 02:46:21;;;;;;;5.40;4.63;;;;;;;;;;5016010;28;20195;-65
2022/01/22 02:48:48;;;;;;;7.78;5.25;;;;;;;;;;5015976;28;20206;-64
2022/01/22 02:51:16;;;;;;;10.45;6.20;;;;;;;;;;5016197;28;20290;-64
2022/01/22 02:53:43;;;;;;;9.27;5.50;;;;;;;;;;5015668;28;20313;-64
2022/01/22 02:56:11;;;;;;;8.15;5.55;;;;;;;;;;5016336;28;20285;-64
2022/01/22 02:58:39;;;;;;;6.53;5.90;;;;;;;;;;5015754;28;20651;-64
2022/01/22 03:01:06;;;;;;;9.25;5.40;;;;;;;;;;5015763;28;20240;-64
2022/01/22 03:03:33;;;;;;;9.15;5.70;;;;;;;;;;5015948;28;20298;-64
2022/01/22 03:06:01;;;;;;;8.48;5.65;;;;;;;;;;5015644;28;20235;-64
2022/01/22 03:08:31;;;;;;;7.28;6.00;;;;;;;;;;5015952;28;20310;-64
2022/01/22 03:11:00;;;;;;;5.47;4.68;;;;;;;;;;5015599;28;20198;-64
2022/01/22 03:16:45;;;;;;;8.05;5.72;;;;;;;;;;5015869;28;20189;-64
2022/01/22 03:19:27;;;;;;;10.13;6.43;;;;;;;;;;5015576;28;20742;-65
2022/01/22 03:22:00;;;;;;;7.18;4.55;;;;;;;;;;5015402;28;20187;-64
2022/01/22 03:27:24;;;;;;;10.23;6.13;;;;;;;;;;5015671;28;20199;-65
2022/01/22 03:29:52;;;;;;;13.43;6.55;;;;;;;;;;5015684;28;20185;-64
2022/01/22 03:32:20;;;;;;;14.32;7.20;;;;;;;;;;5015625;28;20619;-65
2022/01/22 03:34:56;;;;;;;9.90;6.85;;;;;;;;;;5015058;28;20215;-65
2022/01/22 03:37:24;;;;;;;13.32;6.15;;;;;;;;;;5015913;28;20193;-65
2022/01/22 03:39:51;;;;;;;13.55;6.00;;;;;;;;;;5015405;28;20230;-65
2022/01/22 03:42:18;;;;;;;14.35;7.15;;;;;;;;;;5015035;28;20208;-65
2022/01/22 03:44:46;;;;;;;13.93;7.22;;;;;;;;;;5015177;28;20620;-66
2022/01/22 03:47:14;;;;;;;10.52;7.10;;;;;;;;;;5015206;28;20563;-65
2022/01/22 03:49:42;;;;;;;15.32;6.68;;;;;;;;;;5015534;28;20289;-68
2022/01/22 03:52:09;;;;;;;17.35;6.80;;;;;;;;;;5015097;28;20202;-66
2022/01/22 03:54:37;;;;;;;20.42;7.35;;;;;;;;;;5014890;28;20260;-66
2022/01/22 03:57:04;;;;;;;11.48;5.97;;;;;;;;;;5015527;28;20204;-66
2022/01/22 03:59:31;;;;;;;19.38;6.22;;;;;;;;;;5014858;28;20289;-65
2022/01/22 04:02:47;;;;;;;18.58;6.78;;;;;;;;;;5015219;28;20286;-65
2022/01/22 04:05:11;;;;;;;21.80;7.07;;;;;;;;;;5014548;28;20197;-64
2022/01/22 04:08:08;;;;;;;19.38;7.63;;;;;;;;;;5014987;28;20325;-65
2022/01/22 04:10:35;;;;;;;17.20;6.32;;;;;;;;;;5015998;28;20191;-64
2022/01/22 04:13:05;;;;;;;10.27;5.88;;;;;;;;;;5015637;28;20199;-64
2022/01/22 04:15:37;;;;;;;18.33;6.95;;;;;;;;;;5014505;28;20211;-64
2022/01/22 04:26:30;;;;;;;13.65;6.18;;;;;;;;;;5014399;28;20189;-65
2022/01/22 04:28:58;;;;;;;16.40;6.65;;;;;;;;;;5014244;28;20233;-65
2022/01/22 04:31:25;;;;;;;14.88;6.85;;;;;;;;;;5014063;28;20230;-65
2022/01/22 04:33:52;;;;;;;14.52;6.38;;;;;;;;;;5014656;28;20309;-65
2022/01/22 04:36:21;;;;;;;11.25;5.40;;;;;;;;;;5014448;28;20292;-65
2022/01/22 04:38:48;;;;;;;16.35;5.55;;;;;;;;;;5013912;28;20229;-64
2022/01/22 04:41:15;;;;;;;10.05;6.20;;;;;;;;;;5013967;28;20662;-64
2022/01/22 04:43:44;;;;;;;13.07;5.60;;;;;;;;;;5013941;28;20245;-65
2022/01/22 04:46:19;;;;;;;12.13;5.90;;;;;;;;;;5014448;28;20334;-64
2022/01/22 04:48:52;;;;;;;10.60;5.68;;;;;;;;;;5013926;28;20245;-65
2022/01/22 04:56:51;;;;;;;18.33;5.50;;;;;;;;;;5013915;28;20242;-64
2022/01/22 04:59:18;;;;;;;11.23;5.15;;;;;;;;;;5013713;28;20200;-64
2022/01/22 05:01:45;;;;;;;10.45;5.10;;;;;;;;;;5013711;28;20233;-64
2022/01/22 05:04:13;;;;;;;14.88;5.90;;;;;;;;;;5013984;28;20293;-64
2022/01/22 05:06:41;;;;;;;18.50;4.90;;;;;;;;;;5013603;28;20290;-66
2022/01/22 05:09:08;;;;;;;9.05;4.95;;;;;;;;;;5013670;28;20222;-65
2022/01/22 05:11:36;;;;;;;10.95;4.43;;;;;;;;;;5013902;28;20282;-65
2022/01/22 05:14:03;;;;;;;6.85;4.60;;;;;;;;;;5013570;28;20290;-64
2022/01/22 05:16:30;;;;;;;9.20;4.45;;;;;;;;;;5013928;28;20610;-66
2022/01/22 05:19:01;;;;;;;11.70;4.20;;;;;;;;;;5013944;28;20232;-64
2022/01/22 05:21:31;;;;;;;5.88;4.60;;;;;;;;;;5014091;28;20189;-64
2022/01/22 05:24:04;;;;;;;10.70;4.28;;;;;;;;;;5023306;28;20200;-64
2022/01/22 05:26:56;;;;;;;14.40;4.22;;;;;;;;;;5033645;28;20275;-64
2022/01/22 05:29:52;;;;;;;9.77;4.35;;;;;;;;;;5033487;28;20288;-64
2022/01/22 05:32:33;;;;;;;6.43;4.18;;;;;;;;;;5033265;28;20211;-64
2022/01/22 05:37:45;;;;;;;5.13;3.20;;;;;;;;;;5037484;28;20200;-64
2022/01/22 05:40:14;;;;;;;11.10;3.95;;;;;;;;;;5037077;28;20194;-64
2022/01/22 05:42:42;;;;;;;5.15;3.65;;;;;;;;;;5037038;28;20233;-64
2022/01/22 05:45:10;;;;;;;18.63;4.18;;;;;;;;;;5037273;28;20623;-64
2022/01/22 05:47:37;;;;;;;12.38;4.13;;;;;;;;;;5037260;28;20201;-65
2022/01/22 05:50:09;;;;;;;11.23;4.10;;;;;;;;;;5036822;28;20291;-64
2022/01/22 05:52:44;;;;;;;8.65;4.75;;;;;;;;;;5037163;28;20191;-64
2022/01/22 05:55:40;;;;;;;13.98;4.57;;;;;;;;;;5037387;28;20219;-64
2022/01/22 06:00:53;;;;;;;6.45;4.30;;;;;;;;;;5036903;28;20185;-64
2022/01/22 06:03:21;;;;;;;5.28;3.92;;;;;;;;;;5037145;28;20225;-65
2022/01/22 06:05:48;;;;;;;6.65;4.25;;;;;;;;;;5036645;28;20250;-64
2022/01/22 06:08:17;;;;;;;8.73;3.72;;;;;;;;;;5037066;28;20312;-64
2022/01/22 06:10:46;;;;;;;6.68;3.20;;;;;;;;;;5036611;28;20202;-65
2022/01/22 06:13:19;;;;;;;8.02;3.53;;;;;;;;;;5036564;28;20225;-65
2022/01/22 06:15:46;;;;;;;4.55;3.55;;;;;;;;;;5037006;28;20209;-64
2022/01/22 06:18:13;;;;;;;4.10;3.38;;;;;;;;;;5037105;28;20573;-65
2022/01/22 06:20:41;;;;;;;6.63;3.55;;;;;;;;;;5036585;28;20195;-64
2022/01/22 06:23:08;;;;;;;8.60;3.60;;;;;;;;;;5033146;28;20230;-63
2022/01/22 06:25:35;;;;;;;8.13;3.90;;;;;;;;;;5016597;28;20244;-64
2022/01/22 06:28:05;;;;;;;3.50;3.20;;;;;;;;;;5016863;28;20196;-64
2022/01/22 06:30:34;;;;;;;6.85;3.80;;;;;;;;;;5016978;28;20276;-64
2022/01/22 06:33:01;;;;;;;8.18;4.28;;;;;;;;;;5016460;28;20285;-63
2022/01/22 06:35:28;;;;;;;7.28;4.38;;;;;;;;;;5016575;28;20215;-63
2022/01/22 06:37:59;;;;;;;6.88;5.22;;;;;;;;;;5016253;28;20295;-64
2022/01/22 06:43:11;;;;;;;8.40;4.20;;;;;;;;;;5016563;28;20183;-63
2022/01/22 06:45:40;;;;;;;11.88;4.80;;;;;;;;;;5015528;28;20235;-64
2022/01/22 06:48:08;;;;;;;13.20;5.03;;;;;;;;;;5016946;28;20205;-65
2022/01/22 06:50:35;;;;;;;6.43;4.60;;;;;;;;;;5016943;28;20636;-64
2022/01/22 06:53:02;;;;;;;7.25;4.90;;;;;;;;;;5016099;28;20197;-64
2022/01/22 06:55:38;;;;;;;9.00;4.28;;;;;;;;;;5015866;28;20309;-64
2022/01/22 06:58:06;;;;;;;5.25;3.70;;;;;;;;;;5015899;28;20199;-66
2022/01/22 07:00:33;;;;;;;4.35;3.95;;;;;;;;;;5016450;28;20643;-65
2022/01/22 07:03:02;;;;;;;6.47;4.90;;;;;;;;;;5015745;28;20289;-65
2022/01/22 07:05:29;;;;;;;9.52;4.75;;;;;;;;;;5016033;28;20290;-64
2022/01/22 07:07:56;;;;;;;9.55;4.45;;;;;;;;;;5015988;28;20230;-64
2022/01/22 07:10:23;;;;;;;5.78;3.83;;;;;;;;;;5015962;28;20288;-64
2022/01/22 07:12:51;;;;;;;7.65;3.80;;;;;;;;;;5015966;28;20240;-65
2022/01/22 07:15:19;;;;;;;4.95;4.38;;;;;;;;;;5015971;28;20217;-66
2022/01/22 07:17:47;;;;;;;9.68;4.57;;;;;;;;;;5015444;28;20286;-64
2022/01/22 07:20:18;;;;;;;4.55;3.67;;;;;;;;;;5015661;28;20247;-64
2022/01/22 07:22:51;;;;;;;7.72;3.40;;;;;;;;;;5015997;28;20553;-64
2022/01/22 07:25:18;;;;;;;5.80;3.78;;;;;;;;;;5015772;28;20218;-64
2022/01/22 07:27:46;;;;;;;15.63;4.55;;;;;;;;;;5015579;28;20292;-65
2022/01/22 07:30:14;;;;;;;7.90;4.15;;;;;;;;;;5015192;28;20198;-64
2022/01/22 07:32:43;;;;;;;5.90;3.75;;;;;;;;;;5015493;28;20293;-64
2022/01/22 07:35:11;;;;;;;5.40;4.10;;;;;;;;;;5015009;28;20248;-65
2022/01/22 07:37:40;;;;;;;7.32;4.32;;;;;;;;;;5015507;28;20233;-64
2022/01/22 07:40:08;;;;;;;5.65;3.53;;;;;;;;;;5014965;28;20233;-64
2022/01/22 07:42:37;;;;;;;6.25;4.65;;;;;;;;;;5015442;28;20733;-65
2022/01/22 07:45:04;;;;;;;6.53;3.35;;;;;;;;;;5015607;28;20211;-64
2022/01/22 07:47:32;;;;;;;9.52;4.70;;;;;;;;;;5015108;28;20282;-64
2022/01/22 07:49:59;;;;;;;8.85;4.68;;;;;;;;;;5015636;28;20245;-64
2022/01/22 07:52:26;;;;;;;10.32;3.88;;;;;;;;;;5014795;28;20234;-64
2022/01/22 07:54:55;;;;;;;8.15;3.83;;;;;;;;;;5014957;28;20581;-65
2022/01/22 07:57:22;;;;;;;6.03;4.40;;;;;;;;;;5014046;28;20234;-64
2022/01/22 07:59:49;;;;;;;5.45;3.95;;;;;;;;;;5014995;28;20568;-64
2022/01/22 08:02:17;;;;;;;5.43;3.70;;;;;;;;;;5014844;28;20207;-64
2022/01/22 08:04:44;;;;;;;6.00;3.17;;;;;;;;;;5015592;28;20567;-68
2022/01/22 08:07:11;;;;;;;4.95;3.53;;;;;;;;;;5014883;28;20704;-63
2022/01/22 08:09:39;;;;;;;7.32;3.92;;;;;;;;;;5015132;28;20230;-63
2022/01/22 08:12:08;;;;;;;4.65;3.50;;;;;;;;;;5014469;28;20285;-63
2022/01/22 08:14:35;;;;;;;5.43;2.97;;;;;;;;;;5014970;28;20282;-63
2022/01/22 08:17:02;;;;;;;4.45;3.58;;;;;;;;;;5014340;28;20232;-65
2022/01/22 08:19:30;;;;;;;5.78;2.95;;;;;;;;;;5014300;28;20204;-64
2022/01/22 08:21:57;;;;;;;3.75;3.35;;;;;;;;;;5014462;28;20252;-64
2022/01/22 08:24:26;;;;;;;3.33;2.65;;;;;;;;;;5014225;28;20234;-64
2022/01/22 08:27:08;;;;;;;4.32;3.70;;;;;;;;;;5014550;28;20204;-65
2022/01/22 08:29:37;;;;;;;5.32;3.83;;;;;;;;;;5014875;28;20185;-64
2022/01/22 08:32:09;;;;;;;4.30;3.90;;;;;;;;;;5014400;28;20285;-64
2022/01/22 08:37:22;;;;;;;6.13;3.58;;;;;;;;;;5014571;28;20191;-65
2022/01/22 08:39:49;;;;;;;5.38;3.70;;;;;;;;;;5013859;28;20232;-64
2022/01/22 08:42:17;;;;;;;5.25;3.30;;;;;;;;;;5013891;28;20202;-64
2022/01/22 08:44:49;;;;;;;3.72;3.30;;;;;;;;;;5014251;28;20282;-64
2022/01/22 08:47:16;;;;;;;4.50;3.60;;;;;;;;;;5014303;28;20191;-64
2022/01/22 08:49:44;;;;;;;5.45;3.65;;;;;;;;;;5014298;28;20213;-64
2022/01/22 08:52:15;;;;;;;4.32;3.92;;;;;;;;;;5014068;28;20245;-64
2022/01/22 08:54:43;;;;;;;3.58;3.28;;;;;;;;;;5014164;28;20542;-65
2022/01/22 08:57:10;;;;;;;5.13;4.13;;;;;;;;;;5013821;28;20724;-64
2022/01/22 08:59:37;;;;;;;9.35;4.20;;;;;;;;;;5014004;28;20249;-64
2022/01/22 09:02:07;;;;;;;5.10;4.60;;;;;;;;;;5014586;28;20605;-66
2022/01/22 09:04:34;;;;;;;7.32;3.70;;;;;;;;;;5013636;28;20289;-65
2022/01/22 09:07:02;;;;;;;6.85;3.65;;;;;;;;;;5013788;28;20262;-66
2022/01/22 09:09:29;;;;;;;6.55;5.18;;;;;;;;;;5013249;28;20283;-66
2022/01/22 09:11:56;;;;;;;6.70;4.93;;;;;;;;;;5013548;28;20198;-66
2022/01/22 09:14:24;;;;;;;6.75;4.90;;;;;;;;;;5013784;28;20203;-66
2022/01/22 09:16:52;;;;;;;5.70;4.20;;;;;;;;;;5013677;28;20219;-66
2022/01/22 09:19:26;;;;;;;12.27;5.65;;;;;;;;;;5013761;28;20553;-66
2022/01/22 09:21:54;;;;;;;6.05;3.88;;;;;;;;;;5013541;28;20184;-66
2022/01/22 09:24:21;;;;;;;6.28;4.32;;;;;;;;;;5013393;28;20248;-66
2022/01/22 09:26:48;;;;;;;9.57;3.95;;;;;;;;;;5013594;28;20236;-65
2022/01/22 09:29:16;;;;;;;9.90;4.80;;;;;;;;;;5013194;28;20202;-65
2022/01/22 09:31:44;;;;;;;5.20;3.85;;;;;;;;;;5013590;28;20679;-65
2022/01/22 09:34:11;;;;;;;5.57;4.78;;;;;;;;;;5013325;28;20198;-65
2022/01/22 09:36:40;;;;;;;9.68;3.90;;;;;;;;;;5013063;28;20262;-64
2022/01/22 09:39:07;;;;;;;3.40;2.97;;;;;;;;;;5013495;28;20629;-65
2022/01/22 09:41:34;;;;;;;4.88;4.30;;;;;;;;;;5013188;28;20286;-64
2022/01/22 09:44:02;;;;;;;3.60;3.30;;;;;;;;;;5013559;28;20203;-64
2022/01/22 09:46:30;;;;;;;3.33;3.03;;;;;;;;;;5013152;28;20203;-64
2022/01/22 09:48:57;;;;;;;4.57;3.47;;;;;;;;;;5013465;28;20668;-65
2022/01/22 09:51:25;;;;;;;7.05;3.90;;;;;;;;;;5013487;28;20207;-65
2022/01/22 09:53:54;;;;;;;3.53;3.00;;;;;;;;;;5013137;28;20692;-65
2022/01/22 09:56:22;;;;;;;6.90;3.80;;;;;;;;;;5013421;28;20510;-66
2022/01/22 09:58:49;;;;;;;5.40;4.07;;;;;;;;;;5013040;28;20285;-65
2022/01/22 10:01:20;;;;;;;4.50;3.75;;;;;;;;;;5013359;28;20239;-65
2022/01/22 10:03:48;;;;;;;4.55;3.78;;;;;;;;;;5013274;28;20290;-65
2022/01/22 10:06:15;;;;;;;5.05;3.50;;;;;;;;;;5012833;28;20298;-64
2022/01/22 10:08:42;;;;;;;3.83;3.53;;;;;;;;;;5013778;28;20212;-65
2022/01/22 10:11:18;;;;;;;8.02;3.53;;;;;;;;;;5012979;28;20656;-65
2022/01/22 10:13:46;;;;;;;3.58;3.00;;;;;;;;;;5013984;28;20607;-64
2022/01/22 10:16:14;;;;;;;10.52;3.60;;;;;;;;;;5012787;28;20325;-64
2022/01/22 10:18:41;;;;;;;4.03;3.03;;;;;;;;;;5013054;28;20288;-64
2022/01/22 10:21:10;;;;;;;4.50;2.90;;;;;;;;;;5013883;28;20276;-64
2022/01/22 10:23:39;;;;;;;3.38;3.08;;;;;;;;;;5016410;28;20232;-64
2022/01/22 10:26:09;;;;;;;6.22;3.40;;;;;;;;;;5017006;28;20654;-65
2022/01/22 10:28:43;;;;;;;3.75;2.63;;;;;;;;;;5016758;28;20240;-65
2022/01/22 10:31:19;;;;;;;3.08;2.50;;;;;;;;;;5016278;28;20221;-64
2022/01/22 10:34:04;;;;;;;2.55;2.35;;;;;;;;;;5016910;28;20200;-65
2022/01/22 10:36:31;;;;;;;3.45;3.00;;;;;;;;;;5015975;28;20213;-64
2022/01/22 10:38:59;;;;;;;2.90;2.63;;;;;;;;;;5016125;28;20213;-64
2022/01/22 10:41:34;;;;;;;2.47;2.28;;;;;;;;;;5016361;28;20197;-64
2022/01/22 10:44:02;;;;;;;3.03;2.60;;;;;;;;;;5016298;28;20228;-64
2022/01/22 10:46:42;;;;;;;2.72;2.50;;;;;;;;;;5016247;28;20240;-65
2022/01/22 10:49:10;;;;;;;3.10;2.00;;;;;;;;;;5016018;28;20234;-64
2022/01/22 10:51:45;;;;;;;4.10;3.75;;;;;;;;;;5015453;28;20290;-64
2022/01/22 10:54:13;;;;;;;3.72;3.22;;;;;;;;;;5016420;28;20290;-64
2022/01/22 10:56:41;;;;;;;4.30;3.13;;;;;;;;;;5015675;28;20261;-65
2022/01/22 10:59:10;;;;;;;3.35;3.10;;;;;;;;;;5015622;28;20198;-65
2022/01/22 11:01:46;;;;;;;4.45;3.25;;;;;;;;;;5015899;28;20286;-64
2022/01/22 11:04:14;;;;;;;3.13;2.83;;;;;;;;;;5016783;28;20271;-64
2022/01/22 11:06:49;;;;;;;3.63;2.95;;;;;;;;;;5015224;28;20262;-64
2022/01/22 11:09:16;;;;;;;4.38;2.30;;;;;;;;;;5016398;28;20221;-65
2022/01/22 11:11:43;;;;;;;3.70;2.40;;;;;;;;;;5016842;28;20233;-65
2022/01/22 11:14:13;;;;;;;2.58;2.20;;;;;;;;;;5015852;28;20222;-65
2022/01/22 11:16:41;;;;;;;4.07;3.00;;;;;;;;;;5015624;28;20333;-65
2022/01/22 11:19:09;;;;;;;2.20;2.00;;;;;;;;;;5015282;28;20192;-65
2022/01/22 11:21:40;;;;;;;1.83;1.73;;;;;;;;;;5014641;28;20200;-65
2022/01/22 11:24:08;;;;;;;2.20;2.10;;;;;;;;;;5015327;28;20195;-65
2022/01/22 11:26:36;;;;;;;2.70;1.80;;;;;;;;;;5015073;28;20298;-65
2022/01/22 11:29:04;;;;;;;2.03;1.88;;;;;;;;;;5015559;28;20254;-65
2022/01/22 11:31:33;;;;;;;2.20;2.00;;;;;;;;;;5015059;28;20289;-65
2022/01/22 11:34:01;;;;;;;2.25;2.05;;;;;;;;;;5015029;28;20249;-65
2022/01/22 11:36:31;;;;;;;1.70;1.60;;;;;;;;;;5015128;28;20265;-65
2022/01/22 11:38:59;;;;;;;2.10;2.00;;;;;;;;;;5015566;28;20286;-65
2022/01/22 11:41:26;;;;;;;1.67;1.58;;;;;;;;;;5014869;28;20244;-65
2022/01/22 11:44:07;;;;;;;4.20;1.65;;;;;;;;;;5015006;28;20234;-67
2022/01/22 11:46:37;;;;;;;1.65;1.55;;;;;;;;;;5014682;28;20218;-65
2022/01/22 11:49:18;;;;;;;1.52;1.42;;;;;;;;;;5014789;28;20667;-65
2022/01/22 11:51:46;;;;;;;2.15;1.50;;;;;;;;;;5014364;28;20589;-65
2022/01/22 11:54:15;;;;;;;2.03;1.92;;;;;;;;;;5014561;28;20200;-65
2022/01/22 11:56:43;;;;;;;3.45;1.75;;;;;;;;;;5014471;28;20305;-65
2022/01/22 11:59:22;;;;;;;1.70;1.60;;;;;;;;;;5014575;28;20198;-65
2022/01/22 12:01:56;;;;;;;2.15;1.88;;;;;;;;;;5014792;28;20281;-65
2022/01/22 12:04:24;;;;;;;2.03;1.88;;;;;;;;;;5014802;28;20270;-64
2022/01/22 12:07:07;;;;;;;4.95;2.53;;;;;;;;;;5014102;28;20319;-65
2022/01/22 12:09:41;;;;;;;2.05;1.85;;;;;;;;;;5012501;28;20234;-65
2022/01/22 12:15:07;;;;;;;3.20;1.63;;;;;;;;;;5014398;28;20192;-64
2022/01/22 12:17:56;;;;;;;2.28;2.15;;;;;;;;;;5014521;28;20258;-64
2022/01/22 12:21:30;;;;;;;2.97;2.03;;;;;;;;;;5015255;28;20203;-65
2022/01/22 12:23:48;;;;;;;2.35;2.15;;;;;;;;;;5014072;28;20195;-64
2022/01/22 12:26:15;;;;;;;3.15;1.73;;;;;;;;;;5014092;28;20230;-65
2022/01/22 12:28:43;;;;;;;2.03;1.83;;;;;;;;;;5014048;28;20253;-65
2022/01/22 12:31:14;;;;;;;4.13;2.20;;;;;;;;;;5014322;28;20227;-65
2022/01/22 12:33:45;;;;;;;2.38;1.75;;;;;;;;;;5014375;28;20191;-65
2022/01/22 12:36:17;;;;;;;3.92;1.70;;;;;;;;;;5014549;28;20259;-65
2022/01/22 12:38:48;;;;;;;1.85;1.75;;;;;;;;;;5014577;28;20209;-65
2022/01/22 12:41:29;;;;;;;2.00;1.90;;;;;;;;;;5014006;28;20196;-65
2022/01/22 12:44:05;;;;;;;2.00;1.80;;;;;;;;;;5013653;28;20198;-65
2022/01/22 12:46:32;;;;;;;2.35;1.80;;;;;;;;;;5014257;28;20249;-65
2022/01/22 12:49:00;;;;;;;2.08;1.60;;;;;;;;;;5014421;28;20602;-65
2022/01/22 12:51:27;;;;;;;2.97;2.13;;;;;;;;;;5014436;28;20207;-66
2022/01/22 12:53:55;;;;;;;3.20;2.00;;;;;;;;;;5014054;28;20242;-65
2022/01/22 12:56:51;;;;;;;3.92;2.60;;;;;;;;;;5013909;28;20628;-65
2022/01/22 12:59:18;;;;;;;2.85;2.15;;;;;;;;;;5013660;28;20230;-64
2022/01/22 13:01:47;;;;;;;1.92;1.67;;;;;;;;;;5014150;28;20202;-64
2022/01/22 13:04:14;;;;;;;3.35;2.40;;;;;;;;;;5013915;28;20203;-64
2022/01/22 13:06:44;;;;;;;2.38;2.25;;;;;;;;;;5013211;28;20265;-63
2022/01/22 13:09:12;;;;;;;4.50;2.65;;;;;;;;;;5013558;28;20226;-66
2022/01/22 13:11:46;;;;;;;3.35;2.95;;;;;;;;;;5014313;28;20194;-63
2022/01/22 13:14:15;;;;;;;3.08;2.70;;;;;;;;;;5014446;28;20192;-64
2022/01/22 13:16:49;;;;;;;2.72;2.50;;;;;;;;;;5013673;28;20313;-64
2022/01/22 13:19:17;;;;;;;4.68;2.88;;;;;;;;;;5013422;28;20287;-66
2022/01/22 13:21:49;;;;;;;5.30;2.70;;;;;;;;;;5014067;28;20231;-64
2022/01/22 13:24:17;;;;;;;4.35;2.80;;;;;;;;;;5013494;28;20223;-64
2022/01/22 13:26:51;;;;;;;4.63;2.70;;;;;;;;;;5013681;28;20611;-64
2022/01/22 13:29:20;;;;;;;5.55;2.65;;;;;;;;;;5013388;28;20291;-65
2022/01/22 13:32:00;;;;;;;4.68;3.08;;;;;;;;;;5013273;28;20679;-65
2022/01/22 13:34:37;;;;;;;2.70;2.45;;;;;;;;;;5013714;28;20185;-65
2022/01/22 13:40:25;;;;;;;4.00;2.38;;;;;;;;;;4972164;28;20236;-65
2022/01/22 13:48:39;;;;;;;4.50;2.70;;;;;;;;;;5013352;28;20223;-65
2022/01/22 13:51:06;;;;;;;4.32;2.85;;;;;;;;;;5013607;28;20260;-66
2022/01/22 13:53:34;;;;;;;3.67;2.90;;;;;;;;;;5013409;28;20196;-63
2022/01/22 13:56:02;;;;;;;3.67;3.00;;;;;;;;;;5015998;28;20199;-63
2022/01/22 13:58:31;;;;;;;5.15;2.92;;;;;;;;;;5021700;28;20281;-64
2022/01/22 14:01:05;;;;;;;3.33;3.00;;;;;;;;;;5037240;28;20209;-63
2022/01/22 14:03:38;;;;;;;7.53;2.80;;;;;;;;;;5036581;28;20240;-63
2022/01/22 14:06:06;;;;;;;5.47;3.70;;;;;;;;;;5036689;28;20613;-64
2022/01/22 14:08:34;;;;;;;3.33;3.03;;;;;;;;;;5036822;28;20638;-64
2022/01/22 14:11:05;;;;;;;3.30;2.97;;;;;;;;;;5036375;28;20308;-64
2022/01/22 14:13:34;;;;;;;5.95;3.63;;;;;;;;;;5036344;28;20521;-64
2022/01/22 14:16:11;;;;;;;7.32;4.35;;;;;;;;;;5036632;28;20548;-65
2022/01/22 14:18:43;;;;;;;3.08;2.70;;;;;;;;;;5036079;28;20307;-65
2022/01/22 14:21:12;;;;;;;4.50;3.72;;;;;;;;;;5036300;28;20286;-64
2022/01/22 14:23:40;;;;;;;3.30;3.00;;;;;;;;;;5036223;28;20191;-65
2022/01/22 14:26:08;;;;;;;7.22;4.68;;;;;;;;;;5035961;28;20202;-68
2022/01/22 14:28:44;;;;;;;9.60;5.13;;;;;;;;;;5035893;28;20208;-64
2022/01/22 14:31:26;;;;;;;5.10;4.35;;;;;;;;;;5036998;28;20225;-64
2022/01/22 14:33:53;;;;;;;7.68;5.57;;;;;;;;;;5036329;28;20237;-63
2022/01/22 14:36:22;;;;;;;7.47;5.28;;;;;;;;;;5035829;28;20284;-64
2022/01/22 14:38:54;;;;;;;16.13;5.63;;;;;;;;;;5036643;28;20198;-64
2022/01/22 14:46:57;;;;;;;13.98;5.95;;;;;;;;;;5035530;28;20290;-65
2022/01/22 14:49:25;;;;;;;7.70;5.70;;;;;;;;;;5035744;28;20204;-65
2022/01/22 14:51:52;;;;;;;7.63;5.43;;;;;;;;;;5036035;28;20558;-65
2022/01/22 14:54:20;;;;;;;8.80;6.57;;;;;;;;;;5035877;28;20226;-65
2022/01/22 14:56:48;;;;;;;10.45;6.57;;;;;;;;;;5035536;28;20308;-65
2022/01/22 14:59:16;;;;;;;10.93;6.65;;;;;;;;;;5035601;28;20202;-65
2022/01/22 15:01:44;;;;;;;11.77;6.82;;;;;;;;;;5035744;28;20199;-65
2022/01/22 15:04:11;;;;;;;9.55;5.88;;;;;;;;;;5035396;28;20244;-64
2022/01/22 15:06:38;;;;;;;9.60;6.45;;;;;;;;;;5034437;28;20233;-64
2022/01/22 15:09:06;;;;;;;11.38;7.78;;;;;;;;;;5035328;28;20292;-64
2022/01/22 15:11:34;;;;;;;13.00;7.53;;;;;;;;;;5035087;28;20198;-64
2022/01/22 15:14:02;;;;;;;10.02;6.45;;;;;;;;;;5034786;28;20206;-64
2022/01/22 15:16:37;;;;;;;9.70;7.03;;;;;;;;;;5035241;28;20198;-64
2022/01/22 15:19:12;;;;;;;13.98;7.57;;;;;;;;;;5035203;28;20193;-64
2022/01/22 15:21:39;;;;;;;13.60;7.40;;;;;;;;;;5035355;28;20587;-64
2022/01/22 15:24:07;;;;;;;13.82;7.05;;;;;;;;;;5034985;28;20202;-64
2022/01/22 15:26:34;;;;;;;9.50;7.70;;;;;;;;;;5034805;28;20289;-64
2022/01/22 15:29:01;;;;;;;11.93;7.90;;;;;;;;;;5034702;28;20203;-64
2022/01/22 15:31:34;;;;;;;14.07;7.43;;;;;;;;;;5034795;28;20510;-63
2022/01/22 15:36:50;;;;;;;9.00;7.57;;;;;;;;;;5009296;28;20209;-63
2022/01/22 15:39:17;;;;;;;10.80;7.25;;;;;;;;;;5035020;28;20612;-64
2022/01/22 15:41:44;;;;;;;19.27;7.45;;;;;;;;;;5034647;28;20286;-63
2022/01/22 15:44:11;;;;;;;15.05;7.55;;;;;;;;;;5034833;28;20293;-63
2022/01/22 15:46:42;;;;;;;10.60;7.68;;;;;;;;;;5035072;28;20206;-64
2022/01/22 15:49:13;;;;;;;13.63;7.22;;;;;;;;;;5035008;28;20190;-63
2022/01/22 15:51:42;;;;;;;17.13;7.38;;;;;;;;;;5035306;28;20270;-63
2022/01/22 15:54:09;;;;;;;15.23;9.35;;;;;;;;;;5034942;28;20206;-63
2022/01/22 15:56:37;;;;;;;12.18;7.85;;;;;;;;;;5034887;28;20350;-64
2022/01/22 15:59:04;;;;;;;12.18;7.45;;;;;;;;;;5034127;28;20698;-64
2022/01/22 16:01:32;;;;;;;16.30;8.48;;;;;;;;;;5034393;28;20200;-65
2022/01/22 16:04:01;;;;;;;19.38;7.70;;;;;;;;;;5034543;28;20631;-64
2022/01/22 16:06:37;;;;;;;15.23;7.80;;;;;;;;;;5033855;28;20289;-64
2022/01/22 16:09:08;;;;;;;10.30;7.15;;;;;;;;;;5034076;28;20239;-65
2022/01/22 16:11:35;;;;;;;9.75;7.25;;;;;;;;;;5034115;28;20191;-65